sensor_id;sensor_type;location;lat;lon;timestamp;pressure;altitude;pressure_sealevel;temperature;humidity
72570;BME280;60594;50.204;8.844;2024-02-14T00:02:15;100350.19;;;6.20;87.24
72570;BME280;60594;50.204;8.844;2024-02-14T00:05:00;100347.16;;;6.26;86.79
72570;BME280;60594;50.204;8.844;2024-02-14T00:07:45;100342.34;;;6.46;85.42
72570;BME280;60594;50.204;8.844;2024-02-14T00:10:30;100347.94;;;6.56;84.16
72570;BME280;60594;50.204;8.844;2024-02-14T00:13:15;100350.84;;;6.65;83.42
72570;BME280;60594;50.204;8.844;2024-02-14T00:16:03;100345.78;;;6.62;82.60
72570;BME280;60594;50.204;8.844;2024-02-14T00:18:48;100353.81;;;6.61;83.30
72570;BME280;60594;50.204;8.844;2024-02-14T00:21:33;100357.38;;;6.60;83.31
72570;BME280;60594;50.204;8.844;2024-02-14T00:24:18;100344.91;;;6.48;83.88
72570;BME280;60594;50.204;8.844;2024-02-14T00:27:03;100346.63;;;6.35;85.19
72570;BME280;60594;50.204;8.844;2024-02-14T00:29:48;100335.13;;;6.20;85.81
72570;BME280;60594;50.204;8.844;2024-02-14T00:32:34;100332.59;;;6.19;85.64
72570;BME280;60594;50.204;8.844;2024-02-14T00:35:18;100330.63;;;6.22;86.52
72570;BME280;60594;50.204;8.844;2024-02-14T00:38:03;100337.53;;;6.25;86.12
72570;BME280;60594;50.204;8.844;2024-02-14T00:40:49;100334.88;;;6.25;86.38
72570;BME280;60594;50.204;8.844;2024-02-14T00:43:34;100330.97;;;6.16;87.24
72570;BME280;60594;50.204;8.844;2024-02-14T00:46:18;100332.56;;;6.05;87.72
72570;BME280;60594;50.204;8.844;2024-02-14T00:49:03;100324.22;;;5.97;88.25
72570;BME280;60594;50.204;8.844;2024-02-14T00:51:48;100321.03;;;5.92;87.85
72570;BME280;60594;50.204;8.844;2024-02-14T00:54:34;100329.22;;;5.87;88.75
72570;BME280;60594;50.204;8.844;2024-02-14T00:57:19;100331.94;;;5.86;88.57
72570;BME280;60594;50.204;8.844;2024-02-14T01:00:04;100321.44;;;5.84;88.70
72570;BME280;60594;50.204;8.844;2024-02-14T01:02:51;100321.44;;;5.84;88.70
72570;BME280;60594;50.204;8.844;2024-02-14T01:05:36;100311.91;;;5.82;89.20
72570;BME280;60594;50.204;8.844;2024-02-14T01:08:21;100315.09;;;5.73;89.48
72570;BME280;60594;50.204;8.844;2024-02-14T01:11:06;100302.34;;;5.79;89.16
72570;BME280;60594;50.204;8.844;2024-02-14T01:13:51;100309.19;;;5.83;89.18
72570;BME280;60594;50.204;8.844;2024-02-14T01:16:43;100298.59;;;5.83;89.04
72570;BME280;60594;50.204;8.844;2024-02-14T01:19:28;100287.94;;;5.85;88.88
72570;BME280;60594;50.204;8.844;2024-02-14T01:22:14;100289.84;;;5.83;89.40
72570;BME280;60594;50.204;8.844;2024-02-14T01:25:16;100285.78;;;5.91;89.08
72570;BME280;60594;50.204;8.844;2024-02-14T01:28:01;100291.53;;;5.84;88.08
72570;BME280;60594;50.204;8.844;2024-02-14T01:30:45;100286.44;;;5.65;89.78
72570;BME280;60594;50.204;8.844;2024-02-14T01:33:30;100285.53;;;5.66;89.43
72570;BME280;60594;50.204;8.844;2024-02-14T01:36:15;100282.88;;;5.66;89.28
72570;BME280;60594;50.204;8.844;2024-02-14T01:39:01;100280.31;;;5.65;89.55
72570;BME280;60594;50.204;8.844;2024-02-14T01:41:47;100281.06;;;5.67;89.63
72570;BME280;60594;50.204;8.844;2024-02-14T01:44:33;100277.97;;;5.74;89.36
72570;BME280;60594;50.204;8.844;2024-02-14T01:47:19;100283.34;;;5.73;89.59
72570;BME280;60594;50.204;8.844;2024-02-14T01:50:05;100279.09;;;5.70;90.35
72570;BME280;60594;50.204;8.844;2024-02-14T01:52:53;100271.53;;;5.64;91.30
72570;BME280;60594;50.204;8.844;2024-02-14T01:55:38;100268.72;;;5.67;91.48
72570;BME280;60594;50.204;8.844;2024-02-14T01:58:24;100274.28;;;5.77;91.10
72570;BME280;60594;50.204;8.844;2024-02-14T02:01:11;100268.44;;;5.72;92.01
72570;BME280;60594;50.204;8.844;2024-02-14T02:03:55;100270.50;;;5.67;92.36
72570;BME280;60594;50.204;8.844;2024-02-14T02:06:40;100268.06;;;5.78;92.07
72570;BME280;60594;50.204;8.844;2024-02-14T02:09:26;100263.50;;;5.81;92.29
72570;BME280;60594;50.204;8.844;2024-02-14T02:12:12;100256.13;;;5.86;92.76
72570;BME280;60594;50.204;8.844;2024-02-14T02:15:16;100247.06;;;6.04;92.45
72570;BME280;60594;50.204;8.844;2024-02-14T02:18:22;100247.72;;;5.94;92.57
72570;BME280;60594;50.204;8.844;2024-02-14T02:21:27;100249.41;;;5.81;93.36
72570;BME280;60594;50.204;8.844;2024-02-14T02:24:12;100249.03;;;5.87;94.29
72570;BME280;60594;50.204;8.844;2024-02-14T02:26:57;100261.22;;;5.89;93.42
72570;BME280;60594;50.204;8.844;2024-02-14T02:30:07;100245.16;;;6.06;93.41
72570;BME280;60594;50.204;8.844;2024-02-14T02:32:56;100237.53;;;6.02;93.00
72570;BME280;60594;50.204;8.844;2024-02-14T02:35:42;100239.59;;;5.83;94.06
72570;BME280;60594;50.204;8.844;2024-02-14T02:38:45;100249.41;;;5.81;94.41
72570;BME280;60594;50.204;8.844;2024-02-14T02:41:49;100249.88;;;5.87;94.92
72570;BME280;60594;50.204;8.844;2024-02-14T02:44:54;100241.94;;;5.87;94.33
72570;BME280;60594;50.204;8.844;2024-02-14T02:48:07;100249.31;;;5.82;94.87
72570;BME280;60594;50.204;8.844;2024-02-14T02:51:12;100249.97;;;5.86;95.12
72570;BME280;60594;50.204;8.844;2024-02-14T02:54:26;100249.81;;;6.03;94.90
72570;BME280;60594;50.204;8.844;2024-02-14T02:57:31;100258.47;;;6.05;94.55
72570;BME280;60594;50.204;8.844;2024-02-14T03:00:21;100253.59;;;6.27;94.05
72570;BME280;60594;50.204;8.844;2024-02-14T03:03:12;100257.81;;;6.43;93.80
72570;BME280;60594;50.204;8.844;2024-02-14T03:06:14;100258.13;;;6.25;93.73
72570;BME280;60594;50.204;8.844;2024-02-14T03:09:18;100255.13;;;6.17;93.96
72570;BME280;60594;50.204;8.844;2024-02-14T03:12:05;100255.75;;;6.20;93.76
72570;BME280;60594;50.204;8.844;2024-02-14T03:15:10;100252.28;;;6.06;94.75
72570;BME280;60594;50.204;8.844;2024-02-14T03:17:56;100245.84;;;6.10;95.02
72570;BME280;60594;50.204;8.844;2024-02-14T03:20:40;100256.41;;;5.96;94.94
72570;BME280;60594;50.204;8.844;2024-02-14T03:23:25;100253.78;;;5.96;95.06
72570;BME280;60594;50.204;8.844;2024-02-14T03:26:12;100257.28;;;5.96;95.45
72570;BME280;60594;50.204;8.844;2024-02-14T03:28:58;100249.25;;;5.98;95.66
72570;BME280;60594;50.204;8.844;2024-02-14T03:31:42;100260.41;;;6.03;95.19
72570;BME280;60594;50.204;8.844;2024-02-14T03:34:28;100256.31;;;5.97;95.63
72570;BME280;60594;50.204;8.844;2024-02-14T03:37:15;100250.56;;;6.05;95.61
72570;BME280;60594;50.204;8.844;2024-02-14T03:40:00;100249.25;;;6.12;95.19
72570;BME280;60594;50.204;8.844;2024-02-14T03:42:45;100254.63;;;5.96;95.81
72570;BME280;60594;50.204;8.844;2024-02-14T03:45:30;100259.41;;;5.90;96.24
72570;BME280;60594;50.204;8.844;2024-02-14T03:48:15;100263.19;;;5.86;96.85
72570;BME280;60594;50.204;8.844;2024-02-14T03:51:00;100258.59;;;6.03;96.28
72570;BME280;60594;50.204;8.844;2024-02-14T03:53:46;100258.19;;;5.95;96.46
72570;BME280;60594;50.204;8.844;2024-02-14T03:56:31;100261.69;;;5.96;96.57
72570;BME280;60594;50.204;8.844;2024-02-14T03:59:17;100262.94;;;6.04;96.05
72570;BME280;60594;50.204;8.844;2024-02-14T04:02:08;100264.66;;;6.19;95.91
72570;BME280;60594;50.204;8.844;2024-02-14T04:04:54;100260.59;;;6.14;95.45
72570;BME280;60594;50.204;8.844;2024-02-14T04:07:39;100252.56;;;6.15;96.10
72570;BME280;60594;50.204;8.844;2024-02-14T04:10:24;100252.94;;;6.09;95.89
72570;BME280;60594;50.204;8.844;2024-02-14T04:13:09;100252.84;;;6.11;95.74
72570;BME280;60594;50.204;8.844;2024-02-14T04:15:54;100259.16;;;6.08;96.77
72570;BME280;60594;50.204;8.844;2024-02-14T04:18:42;100263.59;;;6.08;96.46
72570;BME280;60594;50.204;8.844;2024-02-14T04:21:27;100253.59;;;6.13;96.83
72570;BME280;60594;50.204;8.844;2024-02-14T04:24:12;100251.59;;;6.16;96.76
72570;BME280;60594;50.204;8.844;2024-02-14T04:26:57;100258.47;;;6.05;96.85
72570;BME280;60594;50.204;8.844;2024-02-14T04:29:46;100242.53;;;6.06;97.57
72570;BME280;60594;50.204;8.844;2024-02-14T04:32:31;100243.75;;;6.01;98.15
72570;BME280;60594;50.204;8.844;2024-02-14T04:35:19;100246.59;;;5.98;98.40
72570;BME280;60594;50.204;8.844;2024-02-14T04:38:05;100247.63;;;5.95;100.00
72570;BME280;60594;50.204;8.844;2024-02-14T04:40:50;100257.75;;;6.03;100.00
72570;BME280;60594;50.204;8.844;2024-02-14T04:43:35;100255.13;;;6.31;99.92
72570;BME280;60594;50.204;8.844;2024-02-14T04:46:20;100255.78;;;6.34;99.58
72570;BME280;60594;50.204;8.844;2024-02-14T04:49:06;100256.63;;;6.35;99.43
72570;BME280;60594;50.204;8.844;2024-02-14T04:51:52;100251.31;;;6.49;98.06
72570;BME280;60594;50.204;8.844;2024-02-14T04:54:37;100257.63;;;6.60;96.94
72570;BME280;60594;50.204;8.844;2024-02-14T04:57:22;100257.03;;;6.69;95.79
72570;BME280;60594;50.204;8.844;2024-02-14T05:00:07;100253.06;;;6.76;96.42
72570;BME280;60594;50.204;8.844;2024-02-14T05:02:54;100257.22;;;6.80;95.46
72570;BME280;60594;50.204;8.844;2024-02-14T05:05:39;100257.69;;;6.87;94.62
72570;BME280;60594;50.204;8.844;2024-02-14T05:08:24;100252.28;;;6.88;94.54
72570;BME280;60594;50.204;8.844;2024-02-14T05:11:10;100256.44;;;6.92;95.70
72570;BME280;60594;50.204;8.844;2024-02-14T05:13:54;100249.84;;;6.85;95.17
72570;BME280;60594;50.204;8.844;2024-02-14T05:16:39;100274.81;;;6.95;95.52
72570;BME280;60594;50.204;8.844;2024-02-14T05:19:24;100270.34;;;6.96;94.16
72570;BME280;60594;50.204;8.844;2024-02-14T05:22:09;100265.47;;;7.02;93.69
72570;BME280;60594;50.204;8.844;2024-02-14T05:24:53;100264.66;;;7.02;93.96
72570;BME280;60594;50.204;8.844;2024-02-14T05:27:38;100267.78;;;6.94;95.12
72570;BME280;60594;50.204;8.844;2024-02-14T05:30:24;100260.44;;;6.85;99.71
72570;BME280;60594;50.204;8.844;2024-02-14T05:33:18;100263.66;;;6.76;99.65
72570;BME280;60594;50.204;8.844;2024-02-14T05:36:07;100243.06;;;6.67;100.00
72570;BME280;60594;50.204;8.844;2024-02-14T05:38:52;100234.06;;;6.70;100.00
72570;BME280;60594;50.204;8.844;2024-02-14T05:41:37;100239.28;;;6.71;100.00
72570;BME280;60594;50.204;8.844;2024-02-14T05:44:21;100258.16;;;6.79;100.00
72570;BME280;60594;50.204;8.844;2024-02-14T05:47:07;100255.63;;;6.78;100.00
72570;BME280;60594;50.204;8.844;2024-02-14T05:49:51;100260.53;;;6.84;99.57
72570;BME280;60594;50.204;8.844;2024-02-14T05:52:37;100257.59;;;6.88;100.00
72570;BME280;60594;50.204;8.844;2024-02-14T05:55:22;100264.69;;;6.88;99.85
72570;BME280;60594;50.204;8.844;2024-02-14T05:58:10;100249.25;;;6.80;100.00
72570;BME280;60594;50.204;8.844;2024-02-14T06:00:55;100263.38;;;6.81;100.00
72570;BME280;60594;50.204;8.844;2024-02-14T06:03:43;100260.34;;;6.87;100.00
72570;BME280;60594;50.204;8.844;2024-02-14T06:06:28;100256.09;;;6.84;100.00
72570;BME280;60594;50.204;8.844;2024-02-14T06:09:13;100268.84;;;6.92;100.00
72570;BME280;60594;50.204;8.844;2024-02-14T06:11:58;100263.97;;;6.98;99.83
72570;BME280;60594;50.204;8.844;2024-02-14T06:14:43;100259.63;;;6.97;99.79
72570;BME280;60594;50.204;8.844;2024-02-14T06:17:28;100272.69;;;7.00;99.74
72570;BME280;60594;50.204;8.844;2024-02-14T06:20:13;100281.38;;;7.02;100.00
72570;BME280;60594;50.204;8.844;2024-02-14T06:22:57;100283.19;;;7.02;100.00
72570;BME280;60594;50.204;8.844;2024-02-14T06:25:43;100286.13;;;6.97;99.90
72570;BME280;60594;50.204;8.844;2024-02-14T06:28:30;100292.66;;;7.06;99.41
72570;BME280;60594;50.204;8.844;2024-02-14T06:31:15;100302.88;;;7.25;99.50
72570;BME280;60594;50.204;8.844;2024-02-14T06:33:59;100299.13;;;7.29;98.67
72570;BME280;60594;50.204;8.844;2024-02-14T06:36:46;100314.84;;;7.44;98.31
72570;BME280;60594;50.204;8.844;2024-02-14T06:39:31;100316.97;;;7.39;98.14
72570;BME280;60594;50.204;8.844;2024-02-14T06:42:17;100316.97;;;7.39;98.78
72570;BME280;60594;50.204;8.844;2024-02-14T06:45:02;100311.41;;;7.30;98.33
72570;BME280;60594;50.204;8.844;2024-02-14T06:47:47;100305.91;;;7.33;99.06
72570;BME280;60594;50.204;8.844;2024-02-14T06:50:32;100301.81;;;7.15;100.00
72570;BME280;60594;50.204;8.844;2024-02-14T06:53:17;100315.94;;;7.28;99.79
72570;BME280;60594;50.204;8.844;2024-02-14T06:56:02;100320.88;;;7.34;100.00
72570;BME280;60594;50.204;8.844;2024-02-14T06:58:47;100324.91;;;7.39;99.71
72570;BME280;60594;50.204;8.844;2024-02-14T07:01:36;100332.88;;;7.39;100.00
72570;BME280;60594;50.204;8.844;2024-02-14T07:04:22;100329.66;;;7.34;100.00
72570;BME280;60594;50.204;8.844;2024-02-14T07:07:09;100332.88;;;7.39;100.00
72570;BME280;60594;50.204;8.844;2024-02-14T07:09:54;100342.50;;;7.40;100.00
72570;BME280;60594;50.204;8.844;2024-02-14T07:12:39;100341.00;;;7.36;100.00
72570;BME280;60594;50.204;8.844;2024-02-14T07:15:25;100337.25;;;7.26;100.00
72570;BME280;60594;50.204;8.844;2024-02-14T07:18:13;100335.72;;;7.36;100.00
72570;BME280;60594;50.204;8.844;2024-02-14T07:20:58;100342.81;;;7.36;100.00
72570;BME280;60594;50.204;8.844;2024-02-14T07:23:43;100351.34;;;7.41;100.00
72570;BME280;60594;50.204;8.844;2024-02-14T07:26:28;100341.72;;;7.52;100.00
72570;BME280;60594;50.204;8.844;2024-02-14T07:29:13;100341.06;;;7.49;100.00
72570;BME280;60594;50.204;8.844;2024-02-14T07:32:01;100347.78;;;7.54;100.00
72570;BME280;60594;50.204;8.844;2024-02-14T07:34:46;100335.25;;;7.56;100.00
72570;BME280;60594;50.204;8.844;2024-02-14T07:37:31;100329.41;;;7.51;100.00
72570;BME280;60594;50.204;8.844;2024-02-14T07:40:16;100327.72;;;7.50;100.00
72570;BME280;60594;50.204;8.844;2024-02-14T07:43:16;100324.63;;;7.44;100.00
72570;BME280;60594;50.204;8.844;2024-02-14T07:46:01;100324.63;;;7.44;100.00
72570;BME280;60594;50.204;8.844;2024-02-14T07:48:46;100323.75;;;7.43;100.00
72570;BME280;60594;50.204;8.844;2024-02-14T07:51:33;100332.81;;;7.53;100.00
72570;BME280;60594;50.204;8.844;2024-02-14T07:54:23;100326.91;;;7.62;100.00
72570;BME280;60594;50.204;8.844;2024-02-14T07:57:07;100337.06;;;7.56;100.00
72570;BME280;60594;50.204;8.844;2024-02-14T07:59:52;100346.28;;;7.50;100.00
72570;BME280;60594;50.204;8.844;2024-02-14T08:02:37;100338.13;;;7.53;100.00
72570;BME280;60594;50.204;8.844;2024-02-14T08:05:22;100334.22;;;7.59;100.00
72570;BME280;60594;50.204;8.844;2024-02-14T08:08:08;100335.91;;;7.60;100.00
72570;BME280;60594;50.204;8.844;2024-02-14T08:10:53;100348.13;;;7.62;100.00
72570;BME280;60594;50.204;8.844;2024-02-14T08:13:39;100343.34;;;7.67;100.00
72570;BME280;60594;50.204;8.844;2024-02-14T08:16:24;100339.88;;;7.67;100.00
72570;BME280;60594;50.204;8.844;2024-02-14T08:19:09;100335.75;;;7.75;100.00
72570;BME280;60594;50.204;8.844;2024-02-14T08:21:54;100323.03;;;7.80;100.00
72570;BME280;60594;50.204;8.844;2024-02-14T08:24:42;100325.59;;;7.82;100.00
72570;BME280;60594;50.204;8.844;2024-02-14T08:27:27;100327.38;;;7.81;100.00
72570;BME280;60594;50.204;8.844;2024-02-14T08:30:12;100335.91;;;7.86;100.00
72570;BME280;60594;50.204;8.844;2024-02-14T08:32:58;100339.94;;;7.92;100.00
72570;BME280;60594;50.204;8.844;2024-02-14T08:35:43;100336.63;;;7.88;100.00
72570;BME280;60594;50.204;8.844;2024-02-14T08:38:28;100344.19;;;7.94;100.00
72570;BME280;60594;50.204;8.844;2024-02-14T08:41:12;100351.38;;;7.92;100.00
72570;BME280;60594;50.204;8.844;2024-02-14T08:43:58;100359.06;;;7.97;100.00
72570;BME280;60594;50.204;8.844;2024-02-14T08:46:42;100360.94;;;7.95;100.00
72570;BME280;60594;50.204;8.844;2024-02-14T08:49:29;100357.47;;;7.94;100.00
72570;BME280;60594;50.204;8.844;2024-02-14T08:52:14;100356.59;;;7.94;100.00
72570;BME280;60594;50.204;8.844;2024-02-14T08:54:59;100365.81;;;7.88;100.00
72570;BME280;60594;50.204;8.844;2024-02-14T08:57:43;100347.81;;;7.93;100.00
72570;BME280;60594;50.204;8.844;2024-02-14T09:00:29;100361.06;;;7.93;100.00
72570;BME280;60594;50.204;8.844;2024-02-14T09:03:15;100356.41;;;7.97;100.00
72570;BME280;60594;50.204;8.844;2024-02-14T09:06:00;100359.69;;;8.00;100.00
72570;BME280;60594;50.204;8.844;2024-02-14T09:08:48;100367.25;;;8.06;100.00
72570;BME280;60594;50.204;8.844;2024-02-14T09:11:33;100370.75;;;8.07;100.00
72570;BME280;60594;50.204;8.844;2024-02-14T09:14:18;100364.78;;;8.03;100.00
72570;BME280;60594;50.204;8.844;2024-02-14T09:17:03;100374.25;;;8.07;100.00
72570;BME280;60594;50.204;8.844;2024-02-14T09:19:48;100375.97;;;8.08;100.00
72570;BME280;60594;50.204;8.844;2024-02-14T09:22:35;100381.59;;;8.16;100.00
72570;BME280;60594;50.204;8.844;2024-02-14T09:25:20;100379.88;;;8.15;100.00
72570;BME280;60594;50.204;8.844;2024-02-14T09:28:07;100382.06;;;8.23;100.00
72570;BME280;60594;50.204;8.844;2024-02-14T09:30:53;100373.75;;;8.15;100.00
72570;BME280;60594;50.204;8.844;2024-02-14T09:33:39;100383.03;;;8.22;100.00
72570;BME280;60594;50.204;8.844;2024-02-14T09:36:24;100381.97;;;8.24;100.00
72570;BME280;60594;50.204;8.844;2024-02-14T09:39:11;100381.22;;;8.35;100.00
72570;BME280;60594;50.204;8.844;2024-02-14T09:41:58;100374.53;;;8.42;100.00
72570;BME280;60594;50.204;8.844;2024-02-14T09:44:47;100367.13;;;8.47;100.00
72570;BME280;60594;50.204;8.844;2024-02-14T09:47:35;100380.06;;;8.51;100.00
72570;BME280;60594;50.204;8.844;2024-02-14T09:50:20;100379.34;;;8.62;100.00
72570;BME280;60594;50.204;8.844;2024-02-14T09:53:07;100380.06;;;8.64;100.00
72570;BME280;60594;50.204;8.844;2024-02-14T09:55:52;100373.47;;;8.57;100.00
72570;BME280;60594;50.204;8.844;2024-02-14T09:58:40;100385.28;;;8.65;100.00
72570;BME280;60594;50.204;8.844;2024-02-14T10:01:26;100392.75;;;8.60;100.00
72570;BME280;60594;50.204;8.844;2024-02-14T10:04:11;100385.38;;;8.64;100.00
72570;BME280;60594;50.204;8.844;2024-02-14T10:06:56;100391.16;;;8.58;100.00
72570;BME280;60594;50.204;8.844;2024-02-14T10:09:41;100387.84;;;8.67;100.00
72570;BME280;60594;50.204;8.844;2024-02-14T10:12:29;100395.50;;;8.59;100.00
72570;BME280;60594;50.204;8.844;2024-02-14T10:15:14;100401.53;;;8.61;100.00
72570;BME280;60594;50.204;8.844;2024-02-14T10:17:59;100409.81;;;8.44;100.00
72570;BME280;60594;50.204;8.844;2024-02-14T10:20:57;100401.09;;;8.42;100.00
72570;BME280;60594;50.204;8.844;2024-02-14T10:23:43;100400.69;;;8.48;100.00
72570;BME280;60594;50.204;8.844;2024-02-14T10:26:29;100398.03;;;8.48;100.00
72570;BME280;60594;50.204;8.844;2024-02-14T10:29:15;100392.28;;;8.54;100.00
72570;BME280;60594;50.204;8.844;2024-02-14T10:32:00;100402.28;;;8.63;100.00
72570;BME280;60594;50.204;8.844;2024-02-14T10:34:45;100399.53;;;8.64;100.00
72570;BME280;60594;50.204;8.844;2024-02-14T10:37:30;100399.66;;;8.75;100.00
72570;BME280;60594;50.204;8.844;2024-02-14T10:40:16;100402.19;;;8.77;100.00
72570;BME280;60594;50.204;8.844;2024-02-14T10:43:01;100401.34;;;8.76;100.00
72570;BME280;60594;50.204;8.844;2024-02-14T10:45:46;100400.16;;;8.80;100.00
72570;BME280;60594;50.204;8.844;2024-02-14T10:48:34;100409.81;;;8.94;100.00
72570;BME280;60594;50.204;8.844;2024-02-14T10:51:21;100416.22;;;8.91;100.00
72570;BME280;60594;50.204;8.844;2024-02-14T10:54:12;100414.94;;;8.84;100.00
72570;BME280;60594;50.204;8.844;2024-02-14T10:56:58;100407.06;;;8.95;100.00
72570;BME280;60594;50.204;8.844;2024-02-14T10:59:48;100416.22;;;8.91;100.00
72570;BME280;60594;50.204;8.844;2024-02-14T11:02:34;100418.88;;;8.91;100.00
72570;BME280;60594;50.204;8.844;2024-02-14T11:05:20;100407.59;;;9.00;100.00
72570;BME280;60594;50.204;8.844;2024-02-14T11:08:10;100400.88;;;9.07;100.00
72570;BME280;60594;50.204;8.844;2024-02-14T11:10:59;100393.22;;;9.15;100.00
72570;BME280;60594;50.204;8.844;2024-02-14T11:13:45;100394.22;;;9.38;100.00
72570;BME280;60594;50.204;8.844;2024-02-14T11:16:31;100399.63;;;9.49;100.00
72570;BME280;60594;50.204;8.844;2024-02-14T11:19:18;100400.16;;;9.54;100.00
72570;BME280;60594;50.204;8.844;2024-02-14T11:22:17;100397.13;;;9.58;100.00
72570;BME280;60594;50.204;8.844;2024-02-14T11:25:06;100395.69;;;9.78;100.00
72570;BME280;60594;50.204;8.844;2024-02-14T11:27:52;100395.91;;;9.98;100.00
72570;BME280;60594;50.204;8.844;2024-02-14T11:30:39;100397.38;;;10.26;100.00
72570;BME280;60594;50.204;8.844;2024-02-14T11:33:25;100388.25;;;10.63;98.08
72570;BME280;60594;50.204;8.844;2024-02-14T11:36:11;100387.06;;;10.89;96.90
72570;BME280;60594;50.204;8.844;2024-02-14T11:39:05;100385.50;;;10.98;96.40
72570;BME280;60594;50.204;8.844;2024-02-14T11:41:50;100383.06;;;11.17;94.46
72570;BME280;60594;50.204;8.844;2024-02-14T11:44:35;100379.44;;;11.07;94.90
72570;BME280;60594;50.204;8.844;2024-02-14T11:47:22;100376.63;;;11.19;94.99
72570;BME280;60594;50.204;8.844;2024-02-14T11:50:08;100378.47;;;11.08;96.57
72570;BME280;60594;50.204;8.844;2024-02-14T11:52:54;100378.97;;;11.02;95.57
72570;BME280;60594;50.204;8.844;2024-02-14T11:55:40;100378.84;;;11.03;96.63
72570;BME280;60594;50.204;8.844;2024-02-14T11:58:25;100372.41;;;11.17;96.16
72570;BME280;60594;50.204;8.844;2024-02-14T12:01:10;100374.81;;;11.31;97.08
72570;BME280;60594;50.204;8.844;2024-02-14T12:03:58;100375.19;;;11.04;95.35
72570;BME280;60594;50.204;8.844;2024-02-14T12:06:45;100369.84;;;11.15;95.24
72570;BME280;60594;50.204;8.844;2024-02-14T12:09:30;100377.16;;;11.13;96.02
72570;BME280;60594;50.204;8.844;2024-02-14T12:12:15;100384.06;;;10.94;96.27
72570;BME280;60594;50.204;8.844;2024-02-14T12:15:01;100391.06;;;10.73;97.68
72570;BME280;60594;50.204;8.844;2024-02-14T12:17:47;100394.56;;;10.62;98.49
72570;BME280;60594;50.204;8.844;2024-02-14T12:20:32;100397.28;;;10.38;100.00
72570;BME280;60594;50.204;8.844;2024-02-14T12:23:18;100394.03;;;10.35;100.00
72570;BME280;60594;50.204;8.844;2024-02-14T12:26:04;100401.72;;;10.27;100.00
72570;BME280;60594;50.204;8.844;2024-02-14T12:28:51;100403.44;;;10.28;100.00
72570;BME280;60594;50.204;8.844;2024-02-14T12:31:37;100386.03;;;10.35;100.00
72570;BME280;60594;50.204;8.844;2024-02-14T12:34:21;100388.28;;;10.28;100.00
72570;BME280;60594;50.204;8.844;2024-02-14T12:37:07;100384.03;;;10.26;100.00
72570;BME280;60594;50.204;8.844;2024-02-14T12:39:53;100389.72;;;10.21;100.00
72570;BME280;60594;50.204;8.844;2024-02-14T12:42:38;100384.16;;;10.24;100.00
72570;BME280;60594;50.204;8.844;2024-02-14T12:45:23;100385.13;;;10.23;100.00
72570;BME280;60594;50.204;8.844;2024-02-14T12:48:09;100383.53;;;10.10;100.00
72570;BME280;60594;50.204;8.844;2024-02-14T12:50:54;100392.53;;;10.20;100.00
72570;BME280;60594;50.204;8.844;2024-02-14T12:53:41;100370.13;;;10.22;100.00
72570;BME280;60594;50.204;8.844;2024-02-14T12:56:26;100377.09;;;10.12;100.00
72570;BME280;60594;50.204;8.844;2024-02-14T12:59:17;100380.84;;;10.10;100.00
72570;BME280;60594;50.204;8.844;2024-02-14T13:02:03;100380.53;;;10.14;100.00
72570;BME280;60594;50.204;8.844;2024-02-14T13:04:51;100380.38;;;10.16;100.00
72570;BME280;60594;50.204;8.844;2024-02-14T13:07:35;100380.56;;;10.25;100.00
72570;BME280;60594;50.204;8.844;2024-02-14T13:10:21;100380.78;;;10.22;100.00
72570;BME280;60594;50.204;8.844;2024-02-14T13:13:06;100382.25;;;10.26;100.00
72570;BME280;60594;50.204;8.844;2024-02-14T13:15:51;100380.25;;;10.17;100.00
72570;BME280;60594;50.204;8.844;2024-02-14T13:18:36;100370.09;;;10.11;100.00
72570;BME280;60594;50.204;8.844;2024-02-14T13:21:21;100365.38;;;10.15;100.00
72570;BME280;60594;50.204;8.844;2024-02-14T13:24:06;100362.38;;;10.19;100.00
72570;BME280;60594;50.204;8.844;2024-02-14T13:26:53;100362.97;;;10.23;100.00
72570;BME280;60594;50.204;8.844;2024-02-14T13:29:38;100362.13;;;10.22;100.00
72570;BME280;60594;50.204;8.844;2024-02-14T13:32:23;100359.94;;;10.16;100.00
72570;BME280;60594;50.204;8.844;2024-02-14T13:35:08;100356.06;;;10.20;100.00
72570;BME280;60594;50.204;8.844;2024-02-14T13:37:54;100357.25;;;10.16;100.00
72570;BME280;60594;50.204;8.844;2024-02-14T13:40:41;100362.97;;;10.23;100.00
72570;BME280;60594;50.204;8.844;2024-02-14T13:43:26;100364.06;;;10.20;100.00
72570;BME280;60594;50.204;8.844;2024-02-14T13:46:11;100370.84;;;10.24;100.00
72570;BME280;60594;50.204;8.844;2024-02-14T13:48:57;100369.16;;;10.23;100.00
72570;BME280;60594;50.204;8.844;2024-02-14T13:51:42;100365.63;;;10.23;100.00
72570;BME280;60594;50.204;8.844;2024-02-14T13:54:27;100368.56;;;10.20;100.00
72570;BME280;60594;50.204;8.844;2024-02-14T13:57:12;100364.06;;;10.20;100.00
72570;BME280;60594;50.204;8.844;2024-02-14T13:59:57;100362.25;;;10.21;100.00
72570;BME280;60594;50.204;8.844;2024-02-14T14:02:42;100358.00;;;10.18;100.00
72570;BME280;60594;50.204;8.844;2024-02-14T14:05:27;100362.09;;;10.11;100.00
72570;BME280;60594;50.204;8.844;2024-02-14T14:08:12;100356.81;;;10.22;100.00
72570;BME280;60594;50.204;8.844;2024-02-14T14:10:58;100353.91;;;10.25;100.00
72570;BME280;60594;50.204;8.844;2024-02-14T14:13:43;100349.06;;;10.30;100.00
72570;BME280;60594;50.204;8.844;2024-02-14T14:16:28;100341.91;;;10.31;100.00
72570;BME280;60594;50.204;8.844;2024-02-14T14:19:12;100339.63;;;10.26;100.00
72570;BME280;60594;50.204;8.844;2024-02-14T14:21:58;100354.41;;;10.30;100.00
72570;BME280;60594;50.204;8.844;2024-02-14T14:24:43;100361.44;;;10.43;100.00
72570;BME280;60594;50.204;8.844;2024-02-14T14:27:29;100347.16;;;10.43;100.00
72570;BME280;60594;50.204;8.844;2024-02-14T14:30:13;100351.75;;;10.30;100.00
72570;BME280;60594;50.204;8.844;2024-02-14T14:32:58;100352.72;;;10.29;100.00
72570;BME280;60594;50.204;8.844;2024-02-14T14:35:45;100355.50;;;10.28;100.00